Time;durP1;ratioP1;P1;durP2;ratioP2;P2;SDS_P1;SDS_P2;PMS_P1;PMS_P2;Temp;Humidity;BMP_temperature;BMP_pressure;BME280_temperature;BME280_humidity;BME280_pressure;Samples;Min_cycle;Max_cycle;Signal;HPM_P1;HPM_P2
2022/04/24 00:01:30;;;;;;;9.10;4.90;;;;;;;10.19;86.34;99618.94;10217900;29;20287;-69
2022/04/24 00:06:35;;;;;;;10.27;5.03;;;;;;;10.20;85.91;99621.50;10217906;29;20221;-72
2022/04/24 00:11:39;;;;;;;8.23;4.40;;;;;;;10.11;88.87;99623.44;10217528;29;20228;-70
2022/04/24 00:16:42;;;;;;;9.27;4.70;;;;;;;10.02;88.62;99615.81;10218119;29;20235;-71
2022/04/24 00:21:48;;;;;;;8.30;4.80;;;;;;;9.92;89.50;99612.53;10217171;29;20719;-70
2022/04/24 00:26:51;;;;;;;9.47;4.90;;;;;;;9.91;89.85;99599.59;10216934;29;20220;-71
2022/04/24 00:31:54;;;;;;;8.70;4.77;;;;;;;9.74;91.46;99597.34;10216526;29;20661;-66
2022/04/24 00:36:59;;;;;;;10.00;4.87;;;;;;;9.62;93.23;99589.78;10217013;29;20213;-63
2022/04/24 00:42:02;;;;;;;9.30;5.47;;;;;;;9.45;95.07;99598.75;10216583;29;20657;-69
2022/04/24 00:47:12;;;;;;;9.47;5.20;;;;;;;9.48;94.40;99607.31;10216715;29;20220;-69
2022/04/24 00:52:18;;;;;;;8.77;5.23;;;;;;;9.50;94.94;99610.75;10216646;29;20224;-71
2022/04/24 00:57:22;;;;;;;10.63;5.70;;;;;;;9.38;96.27;99623.03;10216494;29;20225;-68
2022/04/24 01:02:25;;;;;;;10.43;6.90;;;;;;;9.43;94.96;99611.72;10216269;29;20221;-72
2022/04/24 01:07:30;;;;;;;9.57;5.80;;;;;;;9.47;93.81;99612.53;10216223;29;20224;-69
2022/04/24 01:12:33;;;;;;;11.70;6.43;;;;;;;9.52;95.51;99606.41;10216118;29;20220;-68
2022/04/24 01:17:37;;;;;;;10.40;6.20;;;;;;;9.60;95.33;99608.81;10216022;29;20524;-67
2022/04/24 01:22:42;;;;;;;11.60;6.00;;;;;;;9.58;95.78;99606.28;10215709;29;20617;-68
2022/04/24 01:27:45;;;;;;;13.10;6.77;;;;;;;9.60;97.11;99608.81;10216310;29;20211;-70
2022/04/24 01:32:48;;;;;;;9.37;5.77;;;;;;;9.66;95.13;99598.38;10215685;29;20221;-71
2022/04/24 01:37:55;;;;;;;10.47;6.33;;;;;;;9.69;97.02;99591.41;10215640;29;20486;-69
2022/04/24 01:42:58;;;;;;;11.50;6.50;;;;;;;9.68;97.73;99594.84;10215682;29;20197;-69
2022/04/24 01:48:02;;;;;;;10.80;6.97;;;;;;;9.66;95.23;99598.38;10221953;29;20287;-69
2022/04/24 01:53:06;;;;;;;12.53;7.13;;;;;;;9.65;93.53;99600.09;10222329;29;20327;-74
2022/04/24 01:58:10;;;;;;;11.23;7.47;;;;;;;9.55;93.41;99600.28;10222596;29;20237;-72
2022/04/24 02:03:13;;;;;;;13.67;7.47;;;;;;;9.51;93.83;99607.25;10222804;29;20205;-71
2022/04/24 02:08:18;;;;;;;13.40;7.90;;;;;;;9.38;93.26;99608.38;10222481;29;20209;-73
2022/04/24 02:13:21;;;;;;;14.97;8.33;;;;;;;9.44;93.32;99604.81;10222706;29;20221;-72
2022/04/24 02:18:25;;;;;;;15.30;8.97;;;;;;;9.46;94.24;99610.84;10221995;29;20524;-72
2022/04/24 02:23:30;;;;;;;16.40;8.60;;;;;;;9.40;93.12;99613.53;10221857;29;20237;-72
2022/04/24 02:28:33;;;;;;;14.43;8.53;;;;;;;9.47;93.54;99615.97;10221411;29;20193;-72
2022/04/24 02:33:36;;;;;;;15.30;8.50;;;;;;;9.46;94.05;99616.03;10221527;29;20242;-68
2022/04/24 02:38:41;;;;;;;22.90;13.47;;;;;;;9.43;92.55;99627.28;10221281;29;20193;-71
2022/04/24 02:43:44;;;;;;;16.27;9.37;;;;;;;9.38;92.93;99615.28;10221514;29;20624;-69
2022/04/24 02:48:47;;;;;;;15.53;8.97;;;;;;;9.51;93.55;99614.19;10220922;29;20197;-67
2022/04/24 02:53:52;;;;;;;16.00;8.27;;;;;;;9.34;92.53;99609.28;10220648;29;20231;-71
2022/04/24 02:58:55;;;;;;;15.37;8.10;;;;;;;9.39;93.59;99611.81;10220204;29;20221;-70
2022/04/24 03:03:58;;;;;;;15.37;8.20;;;;;;;9.33;93.51;99615.38;10220216;29;20220;-68
2022/04/24 03:09:03;;;;;;;14.33;8.60;;;;;;;9.30;94.29;99620.59;10220236;29;20193;-69
2022/04/24 03:14:06;;;;;;;16.73;9.43;;;;;;;9.23;93.16;99612.06;10219576;29;20579;-68
2022/04/24 03:19:10;;;;;;;14.50;8.77;;;;;;;9.20;94.04;99604.34;10219602;29;20225;-70
2022/04/24 03:24:14;;;;;;;13.67;8.03;;;;;;;9.13;93.68;99596.69;10219391;29;20332;-70
2022/04/24 03:29:17;;;;;;;16.50;9.43;;;;;;;9.16;94.91;99594.09;10219675;29;20316;-72
2022/04/24 03:34:21;;;;;;;13.07;8.00;;;;;;;9.22;94.50;99601.72;10219203;29;20228;-71
2022/04/24 03:39:25;;;;;;;13.23;8.17;;;;;;;9.22;95.56;99615.53;10218868;29;20259;-72
2022/04/24 03:44:29;;;;;;;14.00;7.97;;;;;;;9.20;96.05;99612.13;10218775;29;20239;-70
2022/04/24 03:49:32;;;;;;;14.53;8.20;;;;;;;9.15;95.92;99615.66;10218565;29;20225;-69
2022/04/24 03:54:37;;;;;;;17.37;8.57;;;;;;;9.18;95.86;99613.88;10218381;29;20232;-71
2022/04/24 03:59:40;;;;;;;17.03;7.70;;;;;;;9.04;96.15;99615.81;10218540;29;20267;-71
2022/04/24 04:04:43;;;;;;;13.50;8.00;;;;;;;9.07;97.42;99608.03;10218051;29;20695;-72
2022/04/24 04:09:48;;;;;;;17.10;8.47;;;;;;;9.06;97.32;99606.31;10217073;29;20252;-73
2022/04/24 04:14:51;;;;;;;14.50;8.03;;;;;;;9.04;97.75;99615.00;10217666;29;20370;-63
2022/04/24 04:19:55;;;;;;;14.23;7.97;;;;;;;9.10;99.04;99617.47;10217424;29;20248;-64
2022/04/24 04:24:59;;;;;;;14.43;7.80;;;;;;;9.05;99.41;99607.19;10217411;29;20242;-63
2022/04/24 04:30:02;;;;;;;13.50;7.93;;;;;;;9.10;100.00;99607.97;10216985;29;20286;-65
2022/04/24 04:35:09;;;;;;;11.43;7.37;;;;;;;9.13;99.32;99622.59;10217007;29;20522;-65
2022/04/24 04:40:14;;;;;;;14.53;7.50;;;;;;;9.22;100.00;99617.25;10217080;29;20224;-67
2022/04/24 04:45:17;;;;;;;14.03;7.97;;;;;;;9.25;98.17;99615.47;10216769;29;20225;-71
2022/04/24 04:50:20;;;;;;;17.53;7.53;;;;;;;9.28;99.21;99628.38;10216573;29;20767;-71
2022/04/24 04:55:25;;;;;;;13.40;7.50;;;;;;;9.27;100.00;99618.03;10216477;29;20236;-72
2022/04/24 05:00:29;;;;;;;12.60;6.87;;;;;;;9.13;100.00;99610.50;10216492;29;20213;-68
2022/04/24 05:05:32;;;;;;;13.13;7.33;;;;;;;9.11;100.00;99619.19;10216160;29;20232;-75
2022/04/24 05:10:37;;;;;;;13.40;6.90;;;;;;;9.06;99.76;99616.66;10215986;29;20303;-69
2022/04/24 05:15:40;;;;;;;14.77;6.80;;;;;;;9.07;100.00;99620.97;10216154;29;20279;-69
2022/04/24 05:20:44;;;;;;;9.77;6.13;;;;;;;9.06;100.00;99616.66;10220327;29;20549;-71
2022/04/24 05:25:48;;;;;;;12.57;6.63;;;;;;;9.09;100.00;99615.78;10224121;29;20234;-69
2022/04/24 05:30:51;;;;;;;12.60;6.33;;;;;;;9.06;100.00;99624.44;10223886;29;20311;-71
2022/04/24 05:35:55;;;;;;;11.83;6.40;;;;;;;9.07;100.00;99618.38;10221977;29;20224;-69
2022/04/24 05:41:05;;;;;;;11.97;6.07;;;;;;;9.11;100.00;99621.78;10222412;29;20213;-69
2022/04/24 05:46:08;;;;;;;11.20;5.90;;;;;;;9.17;100.00;99625.13;10222183;29;20316;-69
2022/04/24 05:51:12;;;;;;;10.00;5.63;;;;;;;9.27;100.00;99636.16;10222329;29;20232;-74
2022/04/24 05:56:16;;;;;;;10.17;5.83;;;;;;;9.28;100.00;99637.91;10219622;29;20235;-73
2022/04/24 06:01:20;;;;;;;8.57;4.87;;;;;;;9.39;100.00;99640.31;10220305;29;20530;-72
2022/04/24 06:06:23;;;;;;;9.37;5.63;;;;;;;9.54;100.00;99655.56;10220919;29;20221;-70
2022/04/24 06:11:28;;;;;;;14.80;6.13;;;;;;;9.61;98.76;99641.63;10221026;29;20546;-71
2022/04/24 06:16:31;;;;;;;13.83;5.80;;;;;;;9.70;98.00;99644.91;10220859;29;20700;-70
2022/04/24 06:21:35;;;;;;;9.57;5.63;;;;;;;9.72;97.95;99650.91;10221020;29;20240;-68
2022/04/24 06:26:46;;;;;;;9.63;5.27;;;;;;;9.80;98.31;99651.63;10220699;29;20225;-68
2022/04/24 06:31:49;;;;;;;11.67;5.37;;;;;;;9.95;96.66;99645.31;10220402;29;20567;-70
2022/04/24 06:36:52;;;;;;;10.47;4.93;;;;;;;10.25;95.02;99644.75;10220864;29;20375;-73
2022/04/24 06:41:57;;;;;;;10.97;5.37;;;;;;;10.55;94.32;99646.69;10220943;29;20224;-68
2022/04/24 06:47:01;;;;;;;9.87;5.40;;;;;;;10.78;93.13;99646.19;10220494;29;20297;-73
2022/04/24 06:52:05;;;;;;;11.10;5.20;;;;;;;10.89;92.70;99652.84;10220429;29;20311;-72
2022/04/24 06:57:09;;;;;;;11.03;6.03;;;;;;;11.07;92.51;99655.03;10220535;29;20235;-71
2022/04/24 07:02:13;;;;;;;9.90;5.60;;;;;;;11.13;92.10;99665.25;10220184;29;20243;-69
2022/04/24 07:07:16;;;;;;;10.83;6.27;;;;;;;11.21;90.34;99667.69;10219837;29;20224;-69
2022/04/24 07:12:21;;;;;;;12.40;7.70;;;;;;;11.34;90.73;99659.56;10220207;29;20299;-71
2022/04/24 07:17:24;;;;;;;11.87;6.73;;;;;;;11.59;90.63;99668.47;10218864;29;20225;-70
2022/04/24 07:22:27;;;;;;;14.53;7.83;;;;;;;11.60;89.37;99664.97;10219227;29;20239;-72
2022/04/24 07:27:32;;;;;;;12.10;7.17;;;;;;;11.53;89.21;99663.41;10219377;29;20228;-73
2022/04/24 07:32:41;;;;;;;12.07;7.90;;;;;;;11.35;87.41;99666.47;10219122;29;20221;-73
2022/04/24 07:37:45;;;;;;;13.70;8.33;;;;;;;11.32;90.18;99674.34;10218752;29;20221;-69
2022/04/24 07:42:52;;;;;;;14.17;8.37;;;;;;;11.25;89.78;99669.34;10217961;29;20231;-71
2022/04/24 07:47:56;;;;;;;11.83;8.47;;;;;;;11.13;90.01;99667.03;10218621;29;20232;-70
2022/04/24 07:53:00;;;;;;;11.27;8.07;;;;;;;11.02;90.04;99667.28;10217729;29;20235;-72
2022/04/24 07:58:05;;;;;;;11.73;8.03;;;;;;;10.84;92.01;99652.09;10218002;29;20220;-72
2022/04/24 08:03:10;;;;;;;14.47;8.10;;;;;;;10.78;91.41;99659.19;10217969;29;20235;-73
2022/04/24 08:08:15;;;;;;;12.90;8.53;;;;;;;10.81;90.33;99662.56;10217805;29;20248;-73
2022/04/24 08:13:22;;;;;;;11.63;7.43;;;;;;;11.06;90.46;99676.69;10217390;29;20228;-71
2022/04/24 08:18:25;;;;;;;13.17;8.40;;;;;;;11.44;88.52;99668.84;10217484;29;20680;-72
2022/04/24 08:23:28;;;;;;;11.80;6.97;;;;;;;11.55;87.02;99665.97;10216575;29;20251;-70
2022/04/24 08:28:33;;;;;;;12.57;7.37;;;;;;;11.79;87.83;99662.78;10217126;29;20225;-73
2022/04/24 08:33:36;;;;;;;8.37;4.80;;;;;;;11.98;85.55;99660.53;10216894;29;20293;-71
2022/04/24 08:38:40;;;;;;;8.43;4.77;;;;;;;12.46;81.94;99654.81;10216505;29;20232;-70
2022/04/24 08:43:46;;;;;;;8.80;5.23;;;;;;;12.65;82.18;99644.72;10216482;29;20216;-70
2022/04/24 08:48:49;;;;;;;8.57;5.00;;;;;;;13.01;81.75;99645.38;10216589;29;20299;-70
2022/04/24 08:53:54;;;;;;;7.27;4.40;;;;;;;13.27;79.98;99640.22;10216093;29;20312;-71
2022/04/24 08:58:59;;;;;;;10.87;6.50;;;;;;;13.26;78.19;99638.47;10216266;29;20220;-71
2022/04/24 09:04:02;;;;;;;7.47;4.00;;;;;;;13.15;77.24;99636.22;10216221;29;20282;-72
2022/04/24 09:09:06;;;;;;;6.20;3.53;;;;;;;13.27;75.58;99630.63;10215969;29;20196;-73
2022/04/24 09:14:19;;;;;;;7.57;3.97;;;;;;;13.34;73.48;99626.91;10215343;29;20298;-72
2022/04/24 09:19:24;;;;;;;6.23;3.57;;;;;;;13.57;74.45;99633.97;10215832;29;20205;-71
2022/04/24 09:24:30;;;;;;;7.00;3.83;;;;;;;13.62;74.24;99635.53;10216241;29;20201;-73
2022/04/24 09:29:34;;;;;;;8.30;4.00;;;;;;;13.38;73.82;99638.94;10215868;29;20201;-72
2022/04/24 09:34:39;;;;;;;6.07;3.67;;;;;;;13.21;75.93;99633.44;10215389;29;20564;-70
2022/04/24 09:39:43;;;;;;;6.23;3.60;;;;;;;13.46;77.26;99636.09;10215633;29;20217;-73
2022/04/24 09:44:49;;;;;;;6.23;3.67;;;;;;;15.17;70.19;99625.38;10215656;29;20197;-71
2022/04/24 09:50:13;;;;;;;6.67;2.97;;;;;;;16.47;63.68;99621.47;10215546;29;20196;-71
2022/04/24 09:55:20;;;;;;;4.40;2.07;;;;;;;16.33;62.68;99625.59;10215296;29;20224;-73
2022/04/24 10:00:25;;;;;;;3.67;1.63;;;;;;;16.07;62.47;99635.47;10215167;29;20197;-73
2022/04/24 10:05:30;;;;;;;6.03;2.10;;;;;;;16.27;61.66;99638.97;10216388;29;20207;-73
2022/04/24 10:10:33;;;;;;;5.20;1.80;;;;;;;16.03;61.64;99633.88;10222462;29;20203;-69
2022/04/24 10:15:47;;;;;;;4.17;1.70;;;;;;;15.64;62.93;99635.59;10222160;29;20243;-67
2022/04/24 10:21:04;;;;;;;5.50;2.00;;;;;;;15.83;63.23;99636.53;10222269;29;20229;-72
2022/04/24 10:26:17;;;;;;;6.47;3.30;;;;;;;15.45;62.62;99639.91;10222154;29;20201;-72
2022/04/24 10:31:25;;;;;;;6.60;2.47;;;;;;;15.50;63.50;99645.78;10221600;29;20295;-70
2022/04/24 10:36:28;;;;;;;4.73;2.30;;;;;;;15.89;62.92;99635.44;10221482;29;20620;-70
2022/04/24 10:41:32;;;;;;;4.90;2.10;;;;;;;16.91;59.34;99627.28;10221260;29;20285;-69
2022/04/24 10:46:44;;;;;;;5.17;2.17;;;;;;;17.04;60.33;99615.25;10221058;29;20603;-69
2022/04/24 10:52:00;;;;;;;4.93;2.03;;;;;;;16.68;58.24;99622.25;10220686;29;20632;-68
2022/04/24 10:57:17;;;;;;;13.83;8.50;;;;;;;16.65;58.55;99618.00;10220012;29;20646;-67
2022/04/24 11:02:23;;;;;;;4.27;1.90;;;;;;;17.60;56.65;99613.34;10220295;29;20221;-68
2022/04/24 11:07:27;;;;;;;3.97;1.77;;;;;;;17.68;57.75;99611.19;10220384;29;20275;-66
2022/04/24 11:12:31;;;;;;;4.87;2.10;;;;;;;17.49;55.90;99613.03;10219191;29;20279;-65
2022/04/24 11:17:43;;;;;;;5.57;2.43;;;;;;;17.30;57.96;99612.22;10219950;29;20299;-66
2022/04/24 11:22:49;;;;;;;4.63;1.80;;;;;;;17.29;55.98;99606.13;10218311;29;20296;-67
2022/04/24 11:27:55;;;;;;;5.83;2.50;;;;;;;17.03;57.76;99613.56;10217730;29;20220;-67
2022/04/24 11:33:05;;;;;;;4.60;2.20;;;;;;;17.40;56.07;99608.22;10219136;29;20224;-67
2022/04/24 11:38:12;;;;;;;4.10;1.87;;;;;;;17.31;56.80;99603.41;10219304;29;20217;-66
2022/04/24 11:43:22;;;;;;;4.23;1.73;;;;;;;17.20;56.25;99606.56;10218780;29;20638;-63
2022/04/24 11:53:53;;;;;;;4.57;1.87;;;;;;;17.20;55.36;99601.31;10218547;29;20196;-66
2022/04/24 11:59:13;;;;;;;4.17;2.13;;;;;;;20.43;49.03;99588.47;10218037;29;20282;-66
2022/04/24 12:06:11;;;;;;;5.00;2.20;;;;;;;22.61;46.10;99549.81;10638136;27;20522;-64
2022/04/24 12:11:25;;;;;;;4.83;2.10;;;;;;;23.31;43.12;99534.06;10621051;27;20718;-65
2022/04/24 12:16:29;;;;;;;9.53;2.50;;;;;;;23.79;42.31;99532.97;10567102;27;20306;-68
2022/04/24 12:21:48;;;;;;;5.27;2.03;;;;;;;23.78;42.48;99518.06;10578639;28;20222;-66
2022/04/24 12:26:52;;;;;;;;;;;;;;;23.51;42.97;99507.75;10568907;28;20050;-64
2022/04/24 12:32:05;;;;;;;;;;;;;;;23.48;42.91;99515.09;10552819;28;19931;-64
2022/04/24 12:37:16;;;;;;;;;;;;;;;23.55;42.85;99501.28;10535976;28;20003;-66
2022/04/24 12:42:20;;;;;;;;;;;;;;;23.16;44.20;99495.47;10535627;28;19942;-67
2022/04/24 12:47:25;;;;;;;;;;;;;;;22.47;45.17;99496.19;10535597;28;19920;-66
2022/04/24 12:52:29;;;;;;;;;;;;;;;22.43;45.18;99490.28;10535088;28;19968;-66
2022/04/24 12:57:33;;;;;;;;;;;;;;;22.42;44.28;99487.72;10534863;28;20023;-69
2022/04/24 13:02:36;;;;;;;;;;;;;;;22.48;45.58;99476.72;10534595;28;20239;-72
2022/04/24 13:07:41;;;;;;;;;;;;;;;22.24;45.85;99486.44;10557838;28;19926;-68
2022/04/24 13:12:44;;;;;;;;;;;;;;;24.84;41.83;99462.59;10575852;28;19920;-70
2022/04/24 13:23:10;;;;;;;;;;;;;;;27.49;37.15;99440.69;10550170;28;19930;-69
2022/04/24 13:28:13;;;;;;;;;;;;;;;26.69;38.95;99453.50;10590236;28;20379;-69
2022/04/24 13:33:16;;;;;;;;;;;;;;;24.20;43.02;99466.13;10553965;28;19930;-70
2022/04/24 13:38:28;;;;;;;;;;;;;;;23.39;43.09;99482.22;10589612;28;19920;-70
2022/04/24 13:43:32;;;;;;;;;;;;;;;22.66;45.15;99493.91;10589317;28;20343;-69
2022/04/24 13:48:35;;;;;;;;;;;;;;;22.49;44.34;99492.47;10589299;28;20008;-74
2022/04/24 13:53:40;;;;;;;;;;;;;;;22.09;44.27;99487.53;10588946;28;19919;-70
2022/04/24 13:58:43;;;;;;;;;;;;;;;22.18;45.08;99482.41;10588931;27;19969;-70
2022/04/24 14:03:47;;;;;;;;;;;;;;;21.78;43.72;99496.75;10588603;28;19963;-69
2022/04/24 14:08:51;;;;;;;;;;;;;;;22.07;44.21;99484.16;10588270;28;19926;-74
2022/04/24 14:13:57;;;;;;;;;;;;;;;22.16;42.68;99475.56;10587863;28;19919;-68
2022/04/24 14:19:00;;;;;;;5.43;2.93;;;;;;;22.03;43.79;99474.72;10587425;28;20276;-72
2022/04/24 14:24:06;;;;;;;5.10;2.80;;;;;;;20.94;43.92;99469.03;10587244;28;20225;-69
2022/04/24 14:29:10;;;;;;;7.70;3.13;;;;;;;19.79;48.15;99467.75;10586231;28;20225;-72
2022/04/24 14:34:13;;;;;;;6.50;3.20;;;;;;;19.81;49.87;99463.19;10587016;28;20194;-68
2022/04/24 14:39:19;;;;;;;6.63;2.90;;;;;;;19.74;48.99;99461.06;10586931;28;20230;-70
2022/04/24 14:44:22;;;;;;;4.73;2.83;;;;;;;21.10;47.59;99461.84;10586762;28;20523;-71
2022/04/24 15:00:20;;;;;;;4.53;2.67;;;;;;;21.18;45.94;99454.22;10538421;28;20657;-64
2022/04/24 15:05:24;;;;;;;6.83;2.90;;;;;;;20.83;46.02;99460.97;10501383;28;20220;-65
2022/04/24 15:10:29;;;;;;;6.50;2.90;;;;;;;20.90;47.24;99457.00;10501828;28;20596;-66
2022/04/24 15:15:33;;;;;;;7.37;2.83;;;;;;;19.98;47.26;99449.84;10501618;28;20200;-68
2022/04/24 15:20:37;;;;;;;5.70;2.70;;;;;;;19.58;48.43;99461.16;10501086;28;20191;-65
2022/04/24 15:25:42;;;;;;;5.67;2.50;;;;;;;19.06;49.66;99470.44;10501095;28;20220;-66
2022/04/24 15:30:46;;;;;;;8.13;3.60;;;;;;;18.52;49.54;99473.63;10501041;28;20188;-62
2022/04/24 15:35:49;;;;;;;7.43;2.83;;;;;;;18.15;51.37;99462.47;10500688;28;20214;-64
2022/04/24 15:41:02;;;;;;;5.10;2.73;;;;;;;17.94;51.39;99470.69;10500580;28;20270;-64
2022/04/24 15:46:06;;;;;;;7.27;3.23;;;;;;;17.76;51.30;99469.03;10500436;28;20552;-64
2022/04/24 15:51:10;;;;;;;5.93;2.70;;;;;;;17.74;53.64;99463.88;10500461;28;20679;-64
2022/04/24 15:56:14;;;;;;;5.17;2.87;;;;;;;17.61;53.72;99465.47;10500477;28;20192;-65
2022/04/24 16:01:18;;;;;;;4.17;2.10;;;;;;;17.53;54.06;99456.31;10500000;28;20307;-66
2022/04/24 16:06:24;;;;;;;4.53;2.30;;;;;;;17.56;53.03;99456.13;10500068;28;20207;-65
2022/04/24 16:11:33;;;;;;;6.77;2.30;;;;;;;17.36;52.20;99441.41;10500175;28;20199;-66
2022/04/24 16:16:36;;;;;;;4.40;2.33;;;;;;;17.00;53.83;99438.03;10499919;28;20300;-67
2022/04/24 16:21:40;;;;;;;4.97;2.70;;;;;;;16.76;57.07;99434.03;10499845;28;20553;-67
2022/04/24 16:26:49;;;;;;;5.63;2.20;;;;;;;16.58;55.04;99448.06;10499397;28;20307;-65
2022/04/24 16:31:54;;;;;;;4.20;2.37;;;;;;;16.32;55.39;99438.81;10499789;28;20713;-67
2022/04/24 16:36:57;;;;;;;6.00;2.90;;;;;;;16.10;57.51;99427.69;10499765;28;20228;-67
2022/04/24 16:42:02;;;;;;;9.07;3.00;;;;;;;16.12;56.76;99420.56;10499348;28;20220;-68
2022/04/24 16:47:06;;;;;;;6.87;2.80;;;;;;;15.99;56.92;99422.94;10499095;28;20226;-70
2022/04/24 17:02:53;;;;;;;5.33;2.37;;;;;;;15.60;57.53;99411.69;10506472;28;20236;-68
2022/04/24 17:07:57;;;;;;;8.17;4.57;;;;;;;15.50;57.94;99409.56;10506508;28;20216;-70
2022/04/24 17:13:03;;;;;;;6.80;2.53;;;;;;;15.44;57.87;99397.63;10505853;28;20676;-69
2022/04/24 17:18:09;;;;;;;5.47;2.50;;;;;;;15.35;59.95;99384.91;10506022;28;20223;-67
2022/04/24 17:23:13;;;;;;;5.90;3.00;;;;;;;15.18;59.96;99371.75;10505749;28;20227;-68
2022/04/24 17:28:18;;;;;;;5.07;2.67;;;;;;;15.10;60.95;99365.16;10505600;28;20240;-68
2022/04/24 17:33:24;;;;;;;8.00;5.20;;;;;;;15.03;60.78;99354.97;10505073;28;20232;-66
2022/04/24 17:38:27;;;;;;;5.40;2.50;;;;;;;14.91;61.41;99338.97;10505336;28;20299;-67
2022/04/24 17:43:32;;;;;;;6.00;2.37;;;;;;;14.81;61.19;99369.03;10504875;28;20295;-69
2022/04/24 17:48:37;;;;;;;5.83;3.80;;;;;;;14.72;62.23;99379.91;10504849;28;20215;-69
2022/04/24 17:53:40;;;;;;;6.40;3.60;;;;;;;14.65;62.36;99391.53;10504432;28;20234;-64
2022/04/24 17:58:45;;;;;;;6.00;2.67;;;;;;;14.59;62.34;99384.78;10534263;28;20652;-70
2022/04/24 18:03:49;;;;;;;5.53;3.10;;;;;;;14.55;62.41;99385.81;10541478;28;20273;-69
2022/04/24 18:08:53;;;;;;;7.10;3.20;;;;;;;14.43;63.36;99390.69;10544478;28;20272;-72
2022/04/24 18:13:58;;;;;;;5.07;2.90;;;;;;;14.38;63.30;99384.81;10545670;28;20695;-67
2022/04/24 18:19:06;;;;;;;5.27;2.93;;;;;;;14.22;64.25;99405.44;10545617;28;20293;-62
2022/04/24 18:24:09;;;;;;;7.60;3.17;;;;;;;14.05;66.05;99425.31;10545154;28;20698;-65
2022/04/24 18:29:14;;;;;;;33.13;17.57;;;;;;;14.09;65.76;99424.25;10518532;28;20228;-64
2022/04/24 18:34:18;;;;;;;6.87;3.07;;;;;;;13.99;67.54;99425.53;10503447;28;20230;-63
2022/04/24 18:39:22;;;;;;;10.53;3.23;;;;;;;14.01;66.78;99400.22;10513741;28;20251;-63
2022/04/24 18:44:27;;;;;;;5.67;2.90;;;;;;;13.87;68.07;99378.13;10544487;28;20301;-64
2022/04/24 18:49:30;;;;;;;7.20;3.47;;;;;;;13.76;67.76;99406.38;10543592;28;20407;-64
2022/04/24 18:54:34;;;;;;;6.53;3.23;;;;;;;13.78;68.12;99411.53;10543809;28;20231;-63
2022/04/24 18:59:38;;;;;;;7.37;3.07;;;;;;;13.69;67.88;99412.75;10543840;28;20211;-63
2022/04/24 19:15:29;;;;;;;6.70;3.43;;;;;;;13.65;69.20;99407.72;10515492;28;20242;-71
2022/04/24 19:20:36;;;;;;;5.77;3.10;;;;;;;13.66;69.16;99409.41;10501219;28;20272;-68
2022/04/24 19:25:40;;;;;;;8.37;3.57;;;;;;;13.62;69.65;99413.88;10501074;28;20230;-70
2022/04/24 19:30:47;;;;;;;7.13;3.17;;;;;;;13.64;69.75;99424.25;10500784;28;20226;-69
2022/04/24 19:35:51;;;;;;;7.53;3.40;;;;;;;13.61;71.84;99421.75;10506812;28;20231;-69
2022/04/24 19:40:55;;;;;;;7.27;4.07;;;;;;;13.59;70.75;99413.16;10542379;28;20504;-70
2022/04/24 19:46:00;;;;;;;6.60;3.23;;;;;;;13.53;69.39;99395.13;10542368;28;20245;-68
2022/04/24 19:51:04;;;;;;;5.67;2.80;;;;;;;13.51;69.44;99396.94;10542213;28;20644;-71
2022/04/24 19:56:07;;;;;;;5.57;3.57;;;;;;;13.47;69.59;99409.25;10541779;28;20229;-68
2022/04/24 20:01:12;;;;;;;6.40;3.27;;;;;;;13.50;71.10;99408.25;10541705;28;20229;-68
2022/04/24 20:06:15;;;;;;;6.87;3.70;;;;;;;13.45;70.83;99407.59;10541921;28;20302;-69
2022/04/24 20:11:19;;;;;;;10.90;2.77;;;;;;;13.35;70.97;99403.63;10541677;28;20290;-70
2022/04/24 20:16:24;;;;;;;7.27;3.53;;;;;;;13.29;74.42;99402.09;10541645;28;20306;-70
2022/04/24 20:21:28;;;;;;;7.00;3.13;;;;;;;13.21;79.54;99411.94;10541446;28;20547;-70
2022/04/24 20:26:32;;;;;;;5.33;3.17;;;;;;;12.96;89.23;99415.44;10547514;28;20221;-70
2022/04/24 20:31:38;;;;;;;7.17;3.67;;;;;;;12.81;90.09;99411.59;10547326;28;20211;-69
2022/04/24 20:36:41;;;;;;;7.67;4.03;;;;;;;12.56;94.42;99413.34;10549705;28;20314;-72
2022/04/24 20:41:46;;;;;;;7.13;3.70;;;;;;;12.44;98.98;99431.97;10549452;28;20548;-70
2022/04/24 20:46:50;;;;;;;6.43;3.73;;;;;;;12.39;99.00;99449.47;10549163;28;20195;-67
2022/04/24 20:51:54;;;;;;;7.67;4.30;;;;;;;12.18;100.00;99450.16;10548876;28;20188;-69
2022/04/24 20:56:59;;;;;;;10.47;4.40;;;;;;;12.03;100.00;99451.47;10547990;28;20226;-68
2022/04/24 21:02:11;;;;;;;27.63;18.03;;;;;;;11.85;100.00;99446.81;10535192;28;20365;-68
2022/04/24 21:07:14;;;;;;;11.77;5.33;;;;;;;11.72;100.00;99437.66;10548504;28;20225;-65
2022/04/24 21:12:20;;;;;;;9.00;4.63;;;;;;;11.55;100.00;99422.56;10545888;28;20202;-66
2022/04/24 21:17:25;;;;;;;10.93;5.27;;;;;;;11.37;100.00;99427.44;10547840;28;20304;-65
2022/04/24 21:22:29;;;;;;;8.30;4.97;;;;;;;11.24;100.00;99428.66;10548167;28;20629;-70
2022/04/24 21:27:33;;;;;;;8.83;5.33;;;;;;;11.23;100.00;99420.00;10547647;28;20200;-71
2022/04/24 21:32:38;;;;;;;9.67;5.47;;;;;;;11.20;100.00;99425.28;10547686;28;20248;-68
2022/04/24 21:37:42;;;;;;;9.33;5.13;;;;;;;11.30;100.00;99410.31;10546873;28;20288;-68
2022/04/24 21:42:45;;;;;;;9.03;5.73;;;;;;;11.34;100.00;99419.69;10545008;28;20187;-67
2022/04/24 21:47:50;;;;;;;8.80;5.37;;;;;;;11.22;100.00;99413.09;10547003;28;20203;-66
2022/04/24 21:52:54;;;;;;;8.60;5.53;;;;;;;11.11;100.00;99422.94;10546791;28;20187;-67
2022/04/24 21:57:58;;;;;;;8.07;4.97;;;;;;;11.17;100.00;99415.00;10546465;28;20521;-68
2022/04/24 22:08:23;;;;;;;9.73;5.77;;;;;;;11.18;100.00;99408.06;10546320;28;20259;-66
2022/04/24 22:13:27;;;;;;;8.57;5.53;;;;;;;11.14;100.00;99409.88;10545977;28;20206;-65
2022/04/24 22:18:32;;;;;;;9.67;5.50;;;;;;;11.08;100.00;99414.41;10546185;28;20239;-65
2022/04/24 22:28:55;;;;;;;8.87;4.77;;;;;;;11.06;100.00;99404.03;10524497;28;20772;-66
2022/04/24 22:34:00;;;;;;;8.10;5.30;;;;;;;11.04;100.00;99381.63;10545308;28;20187;-67
2022/04/24 22:39:03;;;;;;;9.73;5.70;;;;;;;11.03;100.00;99366.91;10544918;28;20302;-62
2022/04/24 22:44:07;;;;;;;9.80;5.90;;;;;;;10.96;100.00;99363.63;10544923;28;20198;-65
2022/04/24 22:49:11;;;;;;;11.23;5.83;;;;;;;10.98;100.00;99361.00;10543731;28;20230;-64
2022/04/24 22:54:15;;;;;;;11.70;5.67;;;;;;;10.99;100.00;99362.72;10544420;28;20477;-65
2022/04/24 22:59:18;;;;;;;13.87;5.80;;;;;;;10.92;100.00;99358.59;10544085;28;20668;-71
2022/04/24 23:04:23;;;;;;;8.77;5.23;;;;;;;10.81;100.00;99368.41;10543974;28;20234;-73
2022/04/24 23:09:26;;;;;;;12.30;6.13;;;;;;;10.86;100.00;99356.16;10543548;28;20195;-67
2022/04/24 23:14:30;;;;;;;10.17;5.77;;;;;;;10.83;100.00;99364.03;10543801;28;20191;-69
2022/04/24 23:19:35;;;;;;;8.27;5.27;;;;;;;10.68;100.00;99359.25;10543115;28;20219;-71
2022/04/24 23:24:40;;;;;;;8.80;5.60;;;;;;;10.67;100.00;99365.31;10543145;28;20322;-73
2022/04/24 23:29:43;;;;;;;9.73;5.33;;;;;;;10.68;100.00;99360.09;10543025;28;20528;-68
2022/04/24 23:34:50;;;;;;;10.77;5.67;;;;;;;10.69;100.00;99355.75;10543003;28;20202;-71
2022/04/24 23:39:54;;;;;;;10.03;5.40;;;;;;;10.66;100.00;99358.44;10542720;28;20275;-70
2022/04/24 23:44:57;;;;;;;10.70;5.10;;;;;;;10.57;100.00;99364.72;10542559;28;20688;-71
2022/04/24 23:50:02;;;;;;;9.43;5.47;;;;;;;10.50;100.00;99365.75;10542591;28;20187;-69
2022/04/24 23:55:06;;;;;;;9.70;6.03;;;;;;;10.49;100.00;99361.47;10542035;28;20226;-69
